Nearby METAR Reports

 

EKAH - Tirstrup (civ/Mi, Denmark
Distance from station: SSW 25km
Updated: 25/10/2020 16:50
Mostly cloudy
Mostly cloudy
 Wind from S
Wind: S 11 km/h
Temperature: 12°C
Dew Point: 11°C
Humidity: 94%
Barometer: 1000 hPa
Clouds: Mostly cloudy
Visibility: 10 km
Cloud details: Mostly cloudy 335 m
Mostly cloudy 3048 m
2020/10/25 15:50 EKAH 251550Z AUTO 19006KT 140V300 9999 BKN011/// BKN100/// 12/11 Q1000
EKYT - Alborg, Denmark
Distance from station: NW 91km
Updated: 25/10/2020 16:56
Partly cloudy
Partly cloudy
 Wind from SSW
Wind: SSW 15 km/h
Temperature: 11°C
Dew Point: 10°C
Humidity: 94%
Barometer: 998 hPa
Clouds: Partly cloudy
Visibility: 10 km
Cloud details: Few Clouds 640 m
Partly cloudy 792 m
2020/10/25 15:56 EKYT 251556Z 20008KT 9999 FEW021 SCT026 11/10 Q0998
EKKA - Karup (dan-Afb), Denmark
Distance from station: W 107km
Updated: 25/10/2020 16:50
Mostly cloudy
Mostly cloudy
 Wind from S
Wind: S 11 km/h
Temperature: 11°C
Dew Point: 9°C
Humidity: 88%
Barometer: 998 hPa
Clouds: Mostly cloudy
Visibility: 10 km
Cloud details: Mostly cloudy 3048 m
2020/10/25 15:50 EKKA 251550Z AUTO 19006KT 9999 BKN100/// 11/09 Q0998
 
EKOD - Odense/Beldringe, Denmark
Distance from station: SSW 116km
Updated: 25/10/2020 14:50
NOT Current
Light rain, Showers, Mostly cloudy
Light rain, Showers, Mostly cloudy
 Wind from S
Wind: S 20 km/h
Temperature: 12°C
Dew Point: 11°C
Humidity: 94%
Barometer: 1000 hPa
Summary: Light rain, Showers
Clouds: Mostly cloudy
Visibility: 10 km
Cloud details: Few Clouds 1067 m
Partly cloudy 2286 m
Mostly cloudy 3353 m
2020/10/25 13:50 EKOD 251350Z 19011KT 9999 -SHRA FEW035 SCT075 BKN110 12/11 Q1000
EKBI - Billund Airport, Denmark
Distance from station: SW 134km
Updated: 25/10/2020 16:50
Mostly cloudy
Mostly cloudy
 Wind from S
Wind: S 13 km/h
Temperature: 11°C
Dew Point: 10°C
Humidity: 94%
Barometer: 999 hPa
Clouds: Mostly cloudy
Visibility: 10 km
Cloud details: Mostly cloudy 305 m
Mostly cloudy 3048 m
2020/10/25 15:50 EKBI 251550Z AUTO 19007KT 160V220 9999 BKN010/// BKN100/// 11/10 Q0999
EKCH - Copenhagen/Kastr, Denmark
Distance from station: SE 148km
Updated: 25/10/2020 16:50
Mostly cloudy
Mostly cloudy
 Wind from S
Wind: S 24 km/h
Temperature: 13°C
Dew Point: 11°C
Humidity: 88%
Barometer: 1002 hPa
Clouds: Mostly cloudy
Visibility: 10 km
Cloud details: Partly cloudy 853 m
Mostly cloudy 1280 m
Mostly cloudy 2042 m
2020/10/25 15:50 EKCH 251550Z AUTO 19013KT 9999 SCT028/// BKN042/// BKN067/// 13/11 Q1002 NOSIG